Time;durP1;ratioP1;P1;durP2;ratioP2;P2;SDS_P1;SDS_P2;PMS_P1;PMS_P2;Temp;Humidity;BMP_temperature;BMP_pressure;BME280_temperature;BME280_humidity;BME280_pressure;Samples;Min_cycle;Max_cycle;Signal;HPM_P1;HPM_P2
2023/02/09 00:00:48;;;;;;;28.23;15.27;;;-1.80;99.90;;;;;;2087564;28;20032;-74
2023/02/09 00:01:48;;;;;;;30.95;16.05;;;-1.80;99.90;;;;;;2090292;28;20033;-73
2023/02/09 00:02:49;;;;;;;29.13;15.98;;;-1.80;99.90;;;;;;2091110;28;20118;-74
2023/02/09 00:03:50;;;;;;;27.70;14.85;;;-1.80;99.90;;;;;;2091539;28;20824;-74
2023/02/09 00:04:50;;;;;;;29.27;14.82;;;-1.80;99.90;;;;;;2083158;28;20025;-72
2023/02/09 00:05:51;;;;;;;29.92;16.00;;;-1.90;99.90;;;;;;2085119;28;20029;-73
2023/02/09 00:06:52;;;;;;;28.75;15.35;;;-1.90;99.90;;;;;;2091635;28;20083;-73
2023/02/09 00:07:53;;;;;;;28.13;15.07;;;-2.00;99.90;;;;;;2091393;28;20066;-73
2023/02/09 00:08:55;;;;;;;30.50;15.35;;;-2.00;99.90;;;;;;2083308;28;20205;-73
2023/02/09 00:09:55;;;;;;;28.67;15.35;;;-2.00;99.90;;;;;;2077184;28;20038;-73
2023/02/09 00:10:56;;;;;;;32.70;16.48;;;-1.90;99.90;;;;;;2070293;28;20057;-73
2023/02/09 00:13:22;;;;;;;31.02;16.25;;;-1.90;99.90;;;;;;2091155;28;20024;-73
2023/02/09 00:14:22;;;;;;;28.80;15.20;;;-1.80;99.90;;;;;;2089002;28;20039;-72
2023/02/09 00:15:23;;;;;;;29.83;15.38;;;-1.80;99.90;;;;;;2088886;28;20043;-72
2023/02/09 00:16:25;;;;;;;30.92;15.80;;;-1.90;99.90;;;;;;2091552;28;20029;-73
2023/02/09 00:17:25;;;;;;;27.40;15.43;;;-1.90;99.90;;;;;;2089004;28;20032;-73
2023/02/09 00:18:28;;;;;;;30.58;16.23;;;-1.90;99.90;;;;;;2087740;28;20024;-73
2023/02/09 00:19:29;;;;;;;28.20;15.18;;;-1.90;99.90;;;;;;2091577;28;20032;-73
2023/02/09 00:20:29;;;;;;;27.65;15.55;;;-1.90;99.90;;;;;;2091472;28;20115;-73
2023/02/09 00:21:30;;;;;;;29.20;15.40;;;-1.90;99.90;;;;;;2083287;28;20487;-73
2023/02/09 00:22:31;;;;;;;28.23;15.23;;;-2.00;99.90;;;;;;2083184;28;20029;-73
2023/02/09 00:23:34;;;;;;;28.45;15.07;;;-2.00;99.90;;;;;;2080124;28;20033;-73
2023/02/09 00:24:35;;;;;;;27.70;15.43;;;-2.10;99.90;;;;;;2078357;28;20018;-72
2023/02/09 00:25:39;;;;;;;27.88;14.75;;;-2.10;99.90;;;;;;2086082;28;20423;-72
2023/02/09 00:26:40;;;;;;;27.90;14.65;;;-2.10;99.90;;;;;;2090828;28;20037;-73
2023/02/09 00:27:41;;;;;;;29.73;15.70;;;-2.20;99.90;;;;;;2090055;28;20491;-72
2023/02/09 00:28:41;;;;;;;27.00;15.40;;;-2.20;99.90;;;;;;2083481;28;20084;-73
2023/02/09 00:29:42;;;;;;;29.27;15.40;;;-2.20;99.90;;;;;;2085214;28;20175;-73
2023/02/09 00:30:43;;;;;;;25.80;14.50;;;-2.20;99.90;;;;;;2079320;28;20378;-72
2023/02/09 00:31:43;;;;;;;31.17;15.35;;;-2.10;99.90;;;;;;2078958;28;20483;-73
2023/02/09 00:32:44;;;;;;;27.77;15.18;;;-2.20;99.90;;;;;;2082929;28;20055;-73
2023/02/09 00:33:44;;;;;;;27.50;14.82;;;-2.20;99.90;;;;;;2091381;28;20036;-73
2023/02/09 00:34:45;;;;;;;28.08;14.65;;;-2.20;99.90;;;;;;2087055;28;20045;-72
2023/02/09 00:35:45;;;;;;;27.73;15.52;;;-2.30;99.90;;;;;;2079611;28;20025;-74
2023/02/09 00:36:46;;;;;;;26.33;14.38;;;-2.20;99.90;;;;;;2085313;28;20655;-73
2023/02/09 00:37:46;;;;;;;27.77;14.25;;;-2.30;99.90;;;;;;2083565;28;20517;-73
2023/02/09 00:38:47;;;;;;;27.42;14.18;;;-2.30;99.90;;;;;;2086949;28;20123;-73
2023/02/09 00:39:49;;;;;;;25.58;14.02;;;-2.30;99.90;;;;;;2089517;28;20071;-73
2023/02/09 00:40:51;;;;;;;25.45;14.05;;;-2.40;99.90;;;;;;2087754;28;20670;-73
2023/02/09 00:42:06;;;;;;;28.73;14.98;;;-2.40;99.90;;;;;;2085113;28;20036;-73
2023/02/09 00:43:07;;;;;;;28.70;15.18;;;-2.40;99.90;;;;;;2087949;28;20024;-73
2023/02/09 00:44:10;;;;;;;31.27;15.27;;;-2.30;99.90;;;;;;2089102;28;20035;-73
2023/02/09 00:45:11;;;;;;;27.77;15.00;;;-2.30;99.90;;;;;;2086322;28;20048;-73
2023/02/09 00:46:11;;;;;;;28.25;14.93;;;-2.30;99.90;;;;;;2090421;28;20139;-73
2023/02/09 00:47:12;;;;;;;25.65;14.93;;;-2.40;99.90;;;;;;2083044;28;20033;-72
2023/02/09 00:48:12;;;;;;;26.15;14.32;;;-2.40;99.90;;;;;;2081065;28;20109;-73
2023/02/09 00:49:13;;;;;;;25.35;14.00;;;-2.40;99.90;;;;;;2091217;28;20036;-73
2023/02/09 00:50:14;;;;;;;25.25;13.85;;;-2.40;99.90;;;;;;2091545;28;20067;-73
2023/02/09 00:51:14;;;;;;;24.55;13.63;;;-2.50;99.90;;;;;;2091250;28;20033;-73
2023/02/09 00:52:15;;;;;;;23.80;13.30;;;-2.50;99.90;;;;;;2088871;28;20037;-72
2023/02/09 00:53:15;;;;;;;25.23;13.63;;;-2.50;99.90;;;;;;2082827;28;20063;-72
2023/02/09 00:54:16;;;;;;;26.20;13.98;;;-2.50;99.90;;;;;;2090946;28;20028;-72
2023/02/09 00:55:19;;;;;;;25.20;14.30;;;-2.50;99.90;;;;;;2086899;28;20608;-73
2023/02/09 00:56:19;;;;;;;24.90;14.25;;;-2.50;99.90;;;;;;2090761;28;20036;-73
2023/02/09 00:57:20;;;;;;;39.28;20.42;;;-2.60;99.90;;;;;;2087161;28;20035;-73
2023/02/09 00:58:20;;;;;;;40.65;20.70;;;-2.50;99.90;;;;;;2093749;28;20024;-73
2023/02/09 00:59:21;;;;;;;40.95;21.15;;;-2.50;99.90;;;;;;2087127;28;20028;-72
2023/02/09 01:00:21;;;;;;;43.65;22.40;;;-2.50;99.90;;;;;;2087133;28;20108;-73
2023/02/09 01:01:22;;;;;;;43.20;21.88;;;-2.50;99.90;;;;;;2093081;28;20541;-73
2023/02/09 01:02:23;;;;;;;44.42;22.92;;;-2.60;99.90;;;;;;2082840;28;20120;-73
2023/02/09 01:03:23;;;;;;;47.05;22.88;;;-2.60;99.90;;;;;;2080806;28;20041;-73
2023/02/09 01:04:24;;;;;;;50.15;24.38;;;-2.60;99.90;;;;;;2088886;28;20427;-73
2023/02/09 01:05:24;;;;;;;50.92;25.60;;;-2.60;99.90;;;;;;2091118;28;20032;-73
2023/02/09 01:06:27;;;;;;;52.83;27.10;;;-2.60;99.90;;;;;;2091729;28;20067;-73
2023/02/09 01:07:30;;;;;;;53.80;27.92;;;-2.60;99.90;;;;;;2089362;28;20578;-74
2023/02/09 01:08:30;;;;;;;55.63;27.40;;;-2.70;99.90;;;;;;2098313;28;20036;-73
2023/02/09 01:09:31;;;;;;;55.60;27.08;;;-2.70;99.90;;;;;;2084665;28;20051;-73
2023/02/09 01:10:32;;;;;;;59.03;28.10;;;-2.80;99.90;;;;;;2082650;28;20571;-73
2023/02/09 01:11:32;;;;;;;59.28;28.25;;;-2.80;99.90;;;;;;2080205;28;20048;-74
2023/02/09 01:12:33;;;;;;;56.58;27.90;;;-2.90;99.90;;;;;;2074660;28;20033;-74
2023/02/09 01:13:33;;;;;;;59.92;28.85;;;-2.90;99.90;;;;;;2091119;28;20388;-74
2023/02/09 01:14:34;;;;;;;56.78;28.50;;;-3.00;99.90;;;;;;2096809;28;20577;-74
2023/02/09 01:15:38;;;;;;;60.63;28.85;;;-3.00;99.90;;;;;;2086230;28;20044;-74
2023/02/09 01:16:39;;;;;;;56.45;28.65;;;-3.10;99.90;;;;;;2086480;28;20025;-74
2023/02/09 01:17:40;;;;;;;55.45;28.45;;;-3.10;99.90;;;;;;2092185;28;20482;-75
2023/02/09 01:18:41;;;;;;;56.80;28.27;;;-3.20;99.90;;;;;;2079443;28;20623;-73
2023/02/09 01:19:42;;;;;;;55.45;27.52;;;-3.20;99.90;;;;;;2076647;28;20071;-73
2023/02/09 01:20:43;;;;;;;55.33;27.45;;;-3.20;99.90;;;;;;2083087;28;20021;-73
2023/02/09 01:21:46;;;;;;;56.30;27.33;;;-3.20;99.90;;;;;;2082849;28;20088;-74
2023/02/09 01:22:48;;;;;;;56.70;27.92;;;-3.30;99.90;;;;;;2090853;28;20094;-74
2023/02/09 01:23:49;;;;;;;62.67;29.65;;;-3.30;99.90;;;;;;2091087;28;20561;-73
2023/02/09 01:24:51;;;;;;;58.95;28.35;;;-3.30;99.90;;;;;;2093187;28;20020;-73
2023/02/09 01:26:06;;;;;;;56.95;27.63;;;-3.30;99.90;;;;;;2093736;28;20181;-73
2023/02/09 01:27:08;;;;;;;65.85;30.48;;;-3.40;99.90;;;;;;2089416;28;20032;-73
2023/02/09 01:28:08;;;;;;;61.03;29.38;;;-3.40;99.90;;;;;;2086852;28;20029;-73
2023/02/09 01:29:12;;;;;;;59.42;29.52;;;-3.40;99.90;;;;;;2085301;28;20067;-72
2023/02/09 01:30:13;;;;;;;59.30;29.33;;;-3.50;99.90;;;;;;2086215;28;20660;-73
2023/02/09 01:31:31;;;;;;;63.55;30.10;;;-3.50;99.90;;;;;;2090878;28;20099;-72
2023/02/09 01:32:33;;;;;;;57.88;28.48;;;-3.50;99.90;;;;;;2091508;28;20025;-72
2023/02/09 01:33:34;;;;;;;59.40;28.52;;;-3.50;99.90;;;;;;2084996;28;20094;-72
2023/02/09 01:34:34;;;;;;;59.80;29.13;;;-3.60;99.90;;;;;;2090550;28;20117;-72
2023/02/09 01:35:35;;;;;;;60.25;30.05;;;-3.60;99.90;;;;;;2088664;28;20482;-73
2023/02/09 01:36:35;;;;;;;54.42;27.77;;;-3.60;99.90;;;;;;2082050;28;21523;-73
2023/02/09 01:37:36;;;;;;;58.55;28.70;;;-3.60;99.90;;;;;;2082872;28;20025;-72
2023/02/09 01:38:37;;;;;;;56.85;28.02;;;-3.60;99.90;;;;;;2086951;28;20029;-73
2023/02/09 01:39:37;;;;;;;57.83;28.60;;;-3.60;99.90;;;;;;2089322;28;20025;-73
2023/02/09 01:40:38;;;;;;;53.38;27.75;;;-3.60;99.90;;;;;;2090842;28;20585;-73
2023/02/09 01:41:39;;;;;;;59.00;28.77;;;-3.60;99.90;;;;;;2075156;28;20044;-73
2023/02/09 01:42:43;;;;;;;58.42;29.20;;;-3.60;99.90;;;;;;2075092;28;20030;-73
2023/02/09 01:44:05;;;;;;;56.63;28.33;;;-3.60;99.90;;;;;;2077093;28;20017;-74
2023/02/09 01:45:43;;;;;;;57.13;27.83;;;-3.70;99.90;;;;;;2077023;28;20025;-73
2023/02/09 01:46:43;;;;;;;56.95;27.83;;;-3.70;99.90;;;;;;2089211;28;20055;-73
2023/02/09 01:47:50;;;;;;;55.20;27.63;;;-3.70;99.90;;;;;;2088382;28;20119;-73
2023/02/09 01:49:00;;;;;;;54.08;27.90;;;-3.70;99.90;;;;;;2090900;28;20217;-73
2023/02/09 01:50:01;;;;;;;55.90;27.60;;;-3.70;99.90;;;;;;2090843;28;20041;-73
2023/02/09 01:51:02;;;;;;;57.97;28.02;;;-3.70;99.90;;;;;;2090745;28;20020;-74
2023/02/09 01:52:08;;;;;;;53.95;26.98;;;-3.80;99.90;;;;;;2086864;28;20033;-73
2023/02/09 01:53:10;;;;;;;56.67;27.45;;;-3.80;99.90;;;;;;2089629;28;20531;-73
2023/02/09 01:54:15;;;;;;;57.00;28.05;;;-3.80;99.90;;;;;;2082187;28;20047;-73
2023/02/09 01:55:21;;;;;;;55.22;27.13;;;-3.80;99.90;;;;;;2077680;28;20037;-74
2023/02/09 01:56:28;;;;;;;54.53;28.02;;;-3.80;99.90;;;;;;2086197;28;20127;-75
2023/02/09 01:57:38;;;;;;;55.30;27.02;;;-3.80;99.90;;;;;;2079053;28;20017;-74
2023/02/09 01:58:39;;;;;;;53.20;26.33;;;-3.80;99.90;;;;;;2073627;28;20036;-74
2023/02/09 01:59:43;;;;;;;53.80;26.83;;;-3.80;99.90;;;;;;2074290;28;20528;-74
2023/02/09 02:00:44;;;;;;;51.10;26.13;;;-3.80;99.90;;;;;;2072558;28;20095;-74
2023/02/09 02:01:45;;;;;;;49.75;25.15;;;-3.90;99.90;;;;;;2066069;28;20060;-74
2023/02/09 02:02:58;;;;;;;49.95;25.60;;;-3.90;99.90;;;;;;2066349;28;20049;-74
2023/02/09 02:03:58;;;;;;;51.65;26.08;;;-3.90;99.90;;;;;;2070937;28;20021;-74
2023/02/09 02:04:59;;;;;;;55.13;25.65;;;-3.90;99.90;;;;;;2069610;28;20083;-74
2023/02/09 02:06:11;;;;;;;51.40;26.10;;;-3.90;99.90;;;;;;2086340;28;20056;-73
2023/02/09 02:07:21;;;;;;;51.20;25.13;;;-3.90;99.90;;;;;;2070965;28;20770;-73
2023/02/09 02:08:37;;;;;;;51.95;26.10;;;-4.00;99.90;;;;;;2082416;28;20142;-73
2023/02/09 02:09:38;;;;;;;58.13;27.45;;;-4.00;99.90;;;;;;2075947;28;20029;-73
2023/02/09 02:10:39;;;;;;;58.53;27.77;;;-4.00;99.90;;;;;;2074274;28;20040;-74
2023/02/09 02:11:42;;;;;;;50.88;26.35;;;-4.00;99.90;;;;;;2077616;28;20124;-73
2023/02/09 02:12:44;;;;;;;58.38;28.65;;;-4.00;99.90;;;;;;2083049;28;20104;-73
2023/02/09 02:13:45;;;;;;;62.05;29.90;;;-4.00;99.90;;;;;;2076081;28;20067;-73
2023/02/09 02:14:45;;;;;;;61.47;30.23;;;-3.90;99.90;;;;;;2066465;28;20082;-73
2023/02/09 02:15:55;;;;;;;57.13;28.35;;;-3.90;99.90;;;;;;2078892;28;20052;-74
2023/02/09 02:17:14;;;;;;;64.60;30.88;;;-4.00;99.90;;;;;;2075248;28;20035;-74
2023/02/09 02:18:33;;;;;;;63.70;29.10;;;-3.90;99.90;;;;;;2078256;28;20534;-74
2023/02/09 02:20:06;;;;;;;54.60;28.23;;;-3.90;99.90;;;;;;2078031;28;20029;-73
2023/02/09 02:21:27;;;;;;;62.38;29.13;;;-3.90;99.90;;;;;;2056094;28;20464;-73
2023/02/09 02:22:55;;;;;;;58.83;28.75;;;-3.90;99.90;;;;;;2073573;28;20033;-74
2023/02/09 02:24:14;;;;;;;60.80;28.50;;;-4.00;99.90;;;;;;2069611;28;20591;-73
2023/02/09 02:25:46;;;;;;;59.30;28.45;;;-4.00;99.90;;;;;;2082512;28;20052;-74
2023/02/09 02:27:03;;;;;;;61.80;29.23;;;-4.00;99.90;;;;;;2090675;28;20079;-73
2023/02/09 02:28:31;;;;;;;64.35;29.73;;;-4.00;99.90;;;;;;2078895;28;20032;-73
2023/02/09 02:30:15;;;;;;;63.63;30.40;;;-4.00;99.90;;;;;;2077378;28;20033;-73
2023/02/09 02:31:54;;;;;;;61.03;28.42;;;-4.10;99.90;;;;;;2082609;28;20796;-73
2023/02/09 02:33:16;;;;;;;65.93;29.33;;;-4.10;99.90;;;;;;2082150;28;20029;-72
2023/02/09 02:34:25;;;;;;;62.97;29.50;;;-4.10;99.90;;;;;;2080673;28;20036;-72
2023/02/09 02:35:34;;;;;;;65.20;29.85;;;-4.10;99.90;;;;;;2080736;28;20074;-72
2023/02/09 02:37:02;;;;;;;63.95;30.27;;;-4.10;99.90;;;;;;2091342;28;20024;-73
2023/02/09 02:38:20;;;;;;;62.05;28.70;;;-4.10;99.90;;;;;;2087818;28;20029;-73
2023/02/09 02:39:31;;;;;;;63.15;29.38;;;-4.10;99.90;;;;;;2079125;28;20110;-72
2023/02/09 02:40:34;;;;;;;63.33;29.73;;;-4.10;99.90;;;;;;2082105;28;20515;-72
2023/02/09 02:43:21;;;;;;;62.42;29.95;;;-4.10;99.90;;;;;;2078947;28;20112;-74
2023/02/09 02:44:27;;;;;;;62.10;29.38;;;-4.20;99.90;;;;;;2080408;28;20021;-72
2023/02/09 02:45:28;;;;;;;65.03;31.83;;;-4.20;99.90;;;;;;2072397;28;20098;-73
2023/02/09 02:46:43;;;;;;;69.70;32.35;;;-4.20;99.90;;;;;;2078617;28;20495;-73
2023/02/09 02:47:53;;;;;;;66.40;30.33;;;-4.20;99.90;;;;;;2071694;28;20139;-73
2023/02/09 02:49:00;;;;;;;63.17;30.05;;;-4.20;99.90;;;;;;2077408;28;20076;-72
2023/02/09 02:50:09;;;;;;;63.15;30.73;;;-4.20;99.90;;;;;;2078725;28;20045;-73
2023/02/09 02:51:20;;;;;;;65.38;29.75;;;-4.20;99.90;;;;;;2083333;28;20122;-72
2023/02/09 02:52:20;;;;;;;61.65;29.77;;;-4.20;99.90;;;;;;2089772;28;20032;-72
2023/02/09 02:53:26;;;;;;;66.90;31.58;;;-4.20;99.90;;;;;;2084870;28;20048;-73
2023/02/09 02:54:32;;;;;;;65.00;31.58;;;-4.20;99.90;;;;;;2093255;28;20621;-75
2023/02/09 02:55:35;;;;;;;64.10;30.80;;;-4.20;99.90;;;;;;2087935;28;20086;-74
2023/02/09 02:56:45;;;;;;;66.00;31.83;;;-4.20;99.90;;;;;;2074015;28;20682;-72
2023/02/09 02:57:50;;;;;;;66.18;32.45;;;-4.20;99.90;;;;;;2089167;28;20041;-73
2023/02/09 02:58:53;;;;;;;63.28;30.80;;;-4.30;99.90;;;;;;2082520;28;20066;-74
2023/02/09 02:59:58;;;;;;;64.65;31.25;;;-4.20;99.90;;;;;;2090716;28;20170;-73
2023/02/09 03:01:01;;;;;;;62.80;30.48;;;-4.30;99.90;;;;;;2094457;28;20555;-72
2023/02/09 03:02:12;;;;;;;63.17;31.08;;;-4.30;99.90;;;;;;2082062;28;20047;-73
2023/02/09 03:03:20;;;;;;;60.10;29.20;;;-4.30;99.90;;;;;;2086870;28;20120;-73
2023/02/09 03:04:22;;;;;;;65.30;30.60;;;-4.30;99.90;;;;;;2090307;28;20039;-73
2023/02/09 03:05:25;;;;;;;61.25;28.75;;;-4.40;99.90;;;;;;2075739;28;20022;-74
2023/02/09 03:06:26;;;;;;;60.45;29.45;;;-4.30;99.90;;;;;;2090794;28;21267;-73
2023/02/09 03:07:26;;;;;;;63.88;29.40;;;-4.40;99.90;;;;;;2101171;28;20023;-72
2023/02/09 03:08:27;;;;;;;59.72;29.92;;;-4.40;99.90;;;;;;2090459;28;20027;-73
2023/02/09 03:09:27;;;;;;;58.60;29.35;;;-4.40;99.90;;;;;;2092414;28;20035;-73
2023/02/09 03:10:33;;;;;;;57.83;28.45;;;-4.40;99.90;;;;;;2082144;28;20127;-75
2023/02/09 03:11:43;;;;;;;60.47;29.17;;;-4.40;99.90;;;;;;2083880;28;20086;-74
2023/02/09 03:12:59;;;;;;;63.15;30.15;;;-4.50;99.90;;;;;;2094578;28;20063;-72
2023/02/09 03:14:15;;;;;;;65.82;31.70;;;-4.50;99.90;;;;;;2086256;28;20470;-73
2023/02/09 03:15:19;;;;;;;66.05;31.45;;;-4.40;99.90;;;;;;2087230;28;20080;-73
2023/02/09 03:16:45;;;;;;;65.20;31.27;;;-4.50;99.90;;;;;;2093097;28;20155;-73
2023/02/09 03:18:00;;;;;;;68.18;31.98;;;-4.50;99.90;;;;;;2088886;28;20028;-73
2023/02/09 03:19:17;;;;;;;68.40;32.75;;;-4.40;99.90;;;;;;2084831;28;20021;-73
2023/02/09 03:20:32;;;;;;;66.22;31.40;;;-4.40;99.90;;;;;;2087690;28;20028;-73
2023/02/09 03:21:46;;;;;;;67.35;31.00;;;-4.40;99.90;;;;;;2081979;28;20403;-72
2023/02/09 03:22:56;;;;;;;65.43;30.85;;;-4.40;99.90;;;;;;2089153;28;20053;-73
2023/02/09 03:24:10;;;;;;;67.47;31.40;;;-4.40;99.90;;;;;;2090438;28;20398;-73
2023/02/09 03:25:23;;;;;;;63.58;30.45;;;-4.40;99.90;;;;;;2075502;28;20058;-73
2023/02/09 03:26:41;;;;;;;64.00;29.63;;;-4.40;99.90;;;;;;2085656;28;20037;-73
2023/02/09 03:27:47;;;;;;;66.22;30.52;;;-4.50;99.90;;;;;;2088472;28;20115;-73
2023/02/09 03:28:51;;;;;;;62.42;30.88;;;-4.40;99.90;;;;;;2090240;28;20083;-73
2023/02/09 03:29:57;;;;;;;61.70;30.60;;;-4.40;99.90;;;;;;2097605;28;20039;-73
2023/02/09 03:30:59;;;;;;;62.30;31.42;;;-4.40;99.90;;;;;;2093799;28;20028;-73
2023/02/09 03:31:59;;;;;;;63.92;31.02;;;-4.40;99.90;;;;;;2098674;28;20020;-73
2023/02/09 03:33:02;;;;;;;63.28;30.90;;;-4.50;99.90;;;;;;2088497;28;20017;-74
2023/02/09 03:34:04;;;;;;;64.78;30.13;;;-4.50;99.90;;;;;;2083877;28;20035;-73
2023/02/09 03:35:07;;;;;;;60.15;30.20;;;-4.50;99.90;;;;;;2089657;28;20131;-73
2023/02/09 03:36:12;;;;;;;64.22;30.20;;;-4.50;99.90;;;;;;2089079;28;20064;-72
2023/02/09 03:37:13;;;;;;;61.60;29.88;;;-4.50;99.90;;;;;;2088965;28;20024;-73
2023/02/09 03:38:14;;;;;;;61.20;30.17;;;-4.50;99.90;;;;;;2083579;28;20037;-75
2023/02/09 03:39:14;;;;;;;61.78;31.35;;;-4.50;99.90;;;;;;2075520;28;20048;-72
2023/02/09 03:40:15;;;;;;;62.25;30.52;;;-4.50;99.90;;;;;;2093410;28;20119;-78
2023/02/09 03:41:16;;;;;;;61.42;30.48;;;-4.60;99.90;;;;;;2096707;28;20043;-73
2023/02/09 03:42:16;;;;;;;61.20;29.83;;;-4.60;99.90;;;;;;2100862;28;20626;-78
2023/02/09 03:43:17;;;;;;;60.95;30.75;;;-4.60;99.90;;;;;;2091929;28;20032;-78
2023/02/09 03:44:27;;;;;;;64.70;31.38;;;-4.60;99.90;;;;;;2091793;28;20127;-78
2023/02/09 03:45:27;;;;;;;63.92;31.27;;;-4.60;99.90;;;;;;2099109;28;20042;-78
2023/02/09 03:46:28;;;;;;;62.28;30.95;;;-4.60;99.90;;;;;;2097833;28;20043;-78
2023/02/09 03:47:29;;;;;;;59.22;29.85;;;-4.60;99.90;;;;;;2083709;28;20087;-79
2023/02/09 03:48:30;;;;;;;59.67;30.58;;;-4.60;99.90;;;;;;2083669;28;20061;-80
2023/02/09 03:49:34;;;;;;;65.00;31.23;;;-4.70;99.90;;;;;;2085639;28;20534;-78
2023/02/09 03:50:35;;;;;;;62.83;30.65;;;-4.70;99.90;;;;;;2089929;28;20065;-79
2023/02/09 03:51:35;;;;;;;63.28;31.30;;;-4.60;99.90;;;;;;2097277;28;20024;-79
2023/02/09 03:52:36;;;;;;;65.10;31.30;;;-4.60;99.90;;;;;;2086533;28;20503;-78
2023/02/09 03:53:36;;;;;;;63.47;30.73;;;-4.70;99.90;;;;;;2091586;28;20040;-81
2023/02/09 03:54:37;;;;;;;65.10;32.25;;;-4.70;99.90;;;;;;2099435;28;20035;-78
2023/02/09 03:55:38;;;;;;;70.20;33.33;;;-4.60;99.90;;;;;;2097226;28;20036;-77
2023/02/09 03:56:38;;;;;;;65.57;33.45;;;-4.60;99.90;;;;;;2089648;28;20289;-77
2023/02/09 03:57:39;;;;;;;68.90;34.30;;;-4.60;99.90;;;;;;2087060;28;20661;-78
2023/02/09 03:58:39;;;;;;;73.43;35.97;;;-4.60;99.90;;;;;;2086689;28;20035;-79
2023/02/09 03:59:40;;;;;;;68.13;33.33;;;-4.60;99.90;;;;;;2096269;28;20016;-77
2023/02/09 04:00:41;;;;;;;68.68;34.72;;;-4.60;99.90;;;;;;2102327;28;20435;-77
2023/02/09 04:01:41;;;;;;;69.53;33.67;;;-4.60;99.90;;;;;;2095242;28;20036;-79
2023/02/09 04:02:43;;;;;;;68.40;33.30;;;-4.60;99.90;;;;;;2098722;28;20036;-78
2023/02/09 04:03:43;;;;;;;65.13;32.75;;;-4.60;99.90;;;;;;2096998;28;20024;-79
2023/02/09 04:04:44;;;;;;;69.10;32.40;;;-4.60;99.90;;;;;;2098558;28;20699;-80
2023/02/09 04:05:44;;;;;;;67.50;32.55;;;-4.60;99.90;;;;;;2095930;28;20032;-79
2023/02/09 04:06:46;;;;;;;69.55;34.78;;;-4.60;99.90;;;;;;2090177;28;20125;-80
2023/02/09 04:07:46;;;;;;;70.07;34.47;;;-4.60;99.90;;;;;;2080061;28;20025;-78
2023/02/09 04:08:47;;;;;;;70.13;34.35;;;-4.60;99.90;;;;;;2081086;28;20381;-79
2023/02/09 04:09:47;;;;;;;69.63;34.72;;;-4.70;99.90;;;;;;2088853;28;20028;-79
2023/02/09 04:10:48;;;;;;;69.55;34.90;;;-4.70;99.90;;;;;;2088268;28;20489;-79
2023/02/09 04:11:48;;;;;;;72.00;35.63;;;-4.70;99.90;;;;;;2088221;28;20395;-80
2023/02/09 04:12:49;;;;;;;70.53;34.58;;;-4.70;99.90;;;;;;2098420;28;20444;-79
2023/02/09 04:13:49;;;;;;;71.22;34.35;;;-4.70;99.90;;;;;;2100821;28;20153;-79
2023/02/09 04:14:50;;;;;;;64.25;33.33;;;-4.70;99.90;;;;;;2091288;28;20027;-79
2023/02/09 04:15:51;;;;;;;68.97;34.60;;;-4.70;99.90;;;;;;2091741;28;20029;-79
2023/02/09 04:16:52;;;;;;;65.70;33.53;;;-4.80;99.90;;;;;;2093606;28;20107;-80
2023/02/09 04:17:52;;;;;;;67.50;32.72;;;-4.80;99.90;;;;;;2083424;28;20029;-81
2023/02/09 04:18:53;;;;;;;65.22;32.58;;;-4.80;99.90;;;;;;2082047;28;20526;-80
2023/02/09 04:19:53;;;;;;;66.55;33.75;;;-4.80;99.90;;;;;;2099877;28;20832;-80
2023/02/09 04:20:54;;;;;;;69.63;34.65;;;-4.80;99.90;;;;;;2099859;28;20028;-79
2023/02/09 04:21:55;;;;;;;68.72;34.95;;;-4.80;99.90;;;;;;2097489;28;20043;-79
2023/02/09 04:23:01;;;;;;;66.72;33.75;;;-4.80;99.90;;;;;;2095633;28;20073;-80
2023/02/09 04:24:02;;;;;;;66.00;32.65;;;-4.80;99.90;;;;;;2083177;28;20040;-79
2023/02/09 04:25:02;;;;;;;69.90;35.15;;;-4.80;99.90;;;;;;2083468;28;20033;-80
2023/02/09 04:26:04;;;;;;;65.25;33.03;;;-4.90;99.90;;;;;;2101682;28;20036;-79
2023/02/09 04:27:04;;;;;;;68.63;33.72;;;-4.90;99.90;;;;;;2091542;28;20035;-80
2023/02/09 04:28:06;;;;;;;68.22;33.03;;;-4.90;99.90;;;;;;2078823;28;20434;-79
2023/02/09 04:29:06;;;;;;;61.22;32.05;;;-5.00;99.90;;;;;;2087029;28;20041;-80
2023/02/09 04:30:08;;;;;;;66.78;32.97;;;-5.00;99.90;;;;;;2091242;28;20115;-80
2023/02/09 04:31:09;;;;;;;64.50;32.10;;;-5.00;99.90;;;;;;2075890;28;20029;-79
2023/02/09 04:32:09;;;;;;;60.75;31.60;;;-5.00;99.90;;;;;;2086366;28;20625;-79
2023/02/09 04:33:10;;;;;;;61.90;31.80;;;-5.00;99.90;;;;;;2096100;28;20040;-80
2023/02/09 04:34:10;;;;;;;61.75;32.15;;;-5.00;99.90;;;;;;2083399;28;20246;-79
2023/02/09 04:35:11;;;;;;;60.95;31.35;;;-5.10;99.90;;;;;;2085203;28;20112;-80
2023/02/09 04:36:12;;;;;;;66.68;32.90;;;-5.10;99.90;;;;;;2096806;28;20043;-80
2023/02/09 04:37:12;;;;;;;72.13;36.90;;;-5.10;99.90;;;;;;2088817;28;20041;-80
2023/02/09 04:38:18;;;;;;;67.90;35.00;;;-5.10;99.90;;;;;;2092716;28;20028;-80
2023/02/09 04:39:19;;;;;;;68.05;33.58;;;-5.10;99.90;;;;;;2088033;28;20116;-79
2023/02/09 04:40:19;;;;;;;64.93;33.15;;;-5.10;99.90;;;;;;2089031;28;20043;-79
2023/02/09 04:41:20;;;;;;;64.18;33.22;;;-5.10;99.90;;;;;;2084176;28;20044;-79
2023/02/09 04:42:20;;;;;;;66.40;32.35;;;-5.10;99.90;;;;;;2081043;28;20037;-79
2023/02/09 04:43:21;;;;;;;62.95;31.27;;;-5.10;99.90;;;;;;2078807;28;20034;-79
2023/02/09 04:44:22;;;;;;;62.53;32.10;;;-5.10;99.90;;;;;;2086843;28;20043;-79
2023/02/09 04:45:22;;;;;;;66.32;31.25;;;-5.10;99.90;;;;;;2091381;28;20027;-79
2023/02/09 04:46:23;;;;;;;59.90;30.80;;;-5.10;99.90;;;;;;2098097;28;20059;-80
2023/02/09 04:47:23;;;;;;;59.15;31.20;;;-5.10;99.90;;;;;;2088213;28;20036;-80
2023/02/09 04:48:25;;;;;;;64.93;33.00;;;-5.10;99.90;;;;;;2080753;28;20016;-80
2023/02/09 04:49:26;;;;;;;65.65;32.15;;;-5.10;99.90;;;;;;2094949;28;20060;-80
2023/02/09 04:50:27;;;;;;;63.08;31.08;;;-5.10;99.90;;;;;;2093620;28;20035;-80
2023/02/09 04:51:27;;;;;;;64.70;32.92;;;-5.10;99.90;;;;;;2092629;28;20059;-80
2023/02/09 04:52:28;;;;;;;67.03;32.42;;;-5.10;99.90;;;;;;2096358;28;20046;-79
2023/02/09 04:53:28;;;;;;;63.70;32.15;;;-5.20;99.90;;;;;;2089618;28;20605;-78
2023/02/09 04:54:29;;;;;;;66.22;33.40;;;-5.10;99.90;;;;;;2083718;28;20041;-77
2023/02/09 04:55:30;;;;;;;62.72;32.42;;;-5.10;99.90;;;;;;2086027;28;20032;-78
2023/02/09 04:56:30;;;;;;;64.68;32.30;;;-5.10;99.90;;;;;;2082014;28;20062;-77
2023/02/09 05:00:10;;;;;;;67.07;31.75;;;-5.10;99.90;;;;;;2093864;28;20507;-75
2023/02/09 05:01:22;;;;;;;66.20;31.58;;;-5.10;99.90;;;;;;2093299;28;20036;-79
2023/02/09 05:02:23;;;;;;;63.25;31.05;;;-5.20;99.90;;;;;;2098156;28;20145;-81
2023/02/09 05:03:24;;;;;;;65.57;31.42;;;-5.10;99.90;;;;;;2093817;28;20036;-89
2023/02/09 05:04:25;;;;;;;64.88;31.27;;;-5.20;99.90;;;;;;2098818;28;20035;-88
2023/02/09 05:05:26;;;;;;;65.13;31.95;;;-5.20;99.90;;;;;;2095849;28;20041;-83
2023/02/09 05:06:26;;;;;;;65.55;32.08;;;-5.20;99.90;;;;;;2081559;28;20029;-83
2023/02/09 05:07:27;;;;;;;71.53;32.45;;;-5.20;99.90;;;;;;2083532;28;20082;-78
2023/02/09 05:08:28;;;;;;;75.00;33.97;;;-5.20;99.90;;;;;;2083687;28;20740;-81
2023/02/09 05:09:29;;;;;;;73.90;33.75;;;-5.10;99.90;;;;;;2091641;28;20032;-80
2023/02/09 05:10:29;;;;;;;74.53;33.70;;;-4.90;99.90;;;;;;2098578;28;20028;-80
2023/02/09 05:11:30;;;;;;;76.95;34.28;;;-4.70;99.90;;;;;;2096814;28;20082;-82
2023/02/09 05:12:30;;;;;;;71.18;33.40;;;-4.50;99.90;;;;;;2089490;28;20474;-82
2023/02/09 05:13:31;;;;;;;68.55;32.55;;;-4.50;99.90;;;;;;2092915;28;20103;-82
2023/02/09 05:14:32;;;;;;;69.82;31.77;;;-4.60;99.90;;;;;;2088725;28;20035;-83
2023/02/09 05:15:32;;;;;;;68.72;31.50;;;-4.70;99.90;;;;;;2091771;28;20029;-81
2023/02/09 05:16:33;;;;;;;68.20;32.10;;;-4.70;99.90;;;;;;2091437;28;20081;-79
2023/02/09 05:17:33;;;;;;;73.13;32.83;;;-4.80;99.90;;;;;;2089367;28;20554;-81
2023/02/09 05:18:35;;;;;;;70.22;32.10;;;-4.90;99.90;;;;;;2071441;28;20029;-78
2023/02/09 05:19:35;;;;;;;70.57;32.30;;;-4.90;99.90;;;;;;2086628;28;20025;-81
2023/02/09 05:20:36;;;;;;;68.43;32.55;;;-5.00;99.90;;;;;;2083182;28;20037;-81
2023/02/09 05:21:37;;;;;;;71.03;33.35;;;-5.00;99.90;;;;;;2075055;28;20037;-82
2023/02/09 05:22:37;;;;;;;69.20;33.40;;;-5.10;99.90;;;;;;2076755;28;20476;-78
2023/02/09 05:23:38;;;;;;;76.05;33.40;;;-5.10;99.90;;;;;;2085696;28;20033;-78
2023/02/09 05:24:38;;;;;;;70.78;32.97;;;-5.10;99.90;;;;;;2093785;28;20089;-78
2023/02/09 05:25:39;;;;;;;73.57;34.15;;;-5.20;99.90;;;;;;2079628;28;20079;-80
2023/02/09 05:26:39;;;;;;;74.28;34.05;;;-5.20;99.90;;;;;;2080503;28;20084;-84
2023/02/09 05:27:40;;;;;;;76.85;35.35;;;-5.20;99.90;;;;;;2090173;28;20642;-79
2023/02/09 05:28:40;;;;;;;76.80;34.70;;;-5.20;99.90;;;;;;2097742;28;20028;-75
2023/02/09 05:29:41;;;;;;;78.35;34.53;;;-5.20;99.90;;;;;;2092022;28;20035;-77
2023/02/09 05:30:41;;;;;;;71.10;34.78;;;-5.20;99.90;;;;;;2092100;28;20048;-83